createdAt,value
2023-06-11T00:03:14.802Z,100823.69
2023-06-11T00:08:17.073Z,100817.28
2023-06-11T00:13:19.148Z,100824.66
2023-06-11T00:18:21.408Z,100823.94
2023-06-11T00:23:23.386Z,100824.97
2023-06-11T00:28:25.653Z,100816.75
2023-06-11T00:33:28.432Z,100811.34
2023-06-11T00:38:31.464Z,100811.19
2023-06-11T00:43:33.408Z,100816.56
2023-06-11T00:48:35.342Z,100808.22
2023-06-11T00:53:37.854Z,100811.34
2023-06-11T00:58:41.322Z,100806.66
2023-06-11T01:03:44.739Z,100803.53
2023-06-11T01:08:48.873Z,100811.50
2023-06-11T01:13:51.410Z,100809.91
2023-06-11T01:19:05.090Z,100815.47
2023-06-11T01:24:22.751Z,100816.19
2023-06-11T01:29:27.975Z,100809.34
2023-06-11T01:34:29.983Z,100814.88
2023-06-11T01:39:32.009Z,100812.63
2023-06-11T01:44:34.101Z,100816.75
2023-06-11T01:49:36.630Z,100811.34
2023-06-11T01:54:38.543Z,100811.19
2023-06-11T01:59:40.769Z,100808.94
2023-06-11T02:04:42.778Z,100808.09
2023-06-11T02:09:44.790Z,100805.53
2023-06-11T02:14:47.003Z,100813.63
2023-06-11T02:19:49.095Z,100811.91
2023-06-11T02:24:51.457Z,100806.19
2023-06-11T02:29:53.538Z,100809.66
2023-06-11T02:34:55.753Z,100814.22
2023-06-11T02:39:57.872Z,100802.53
2023-06-11T02:44:59.947Z,100805.69
2023-06-11T02:50:02.176Z,100798.56
2023-06-11T02:55:04.345Z,100810.22
2023-06-11T03:00:07.216Z,100811.94
2023-06-11T03:05:09.576Z,100807.50
2023-06-11T03:10:12.138Z,100816.75
2023-06-11T03:15:14.380Z,100811.09
2023-06-11T03:20:16.829Z,100808.00
2023-06-11T03:25:18.900Z,100812.56
2023-06-11T03:30:20.769Z,100822.84
2023-06-11T03:35:22.970Z,100813.19
2023-06-11T03:40:25.020Z,100825.41
2023-06-11T03:45:27.165Z,100818.47
2023-06-11T03:50:29.276Z,100822.72
2023-06-11T03:55:31.393Z,100827.03
2023-06-11T04:00:33.801Z,100823.88
2023-06-11T04:05:37.583Z,100824.56
2023-06-11T04:10:39.932Z,100822.84
2023-06-11T04:15:41.893Z,100821.00
2023-06-11T04:20:43.915Z,100821.28
2023-06-11T04:25:50.371Z,100830.09
2023-06-11T04:30:53.774Z,100822.31
2023-06-11T04:35:57.600Z,100821.28
2023-06-11T04:40:59.787Z,100814.63
2023-06-11T04:46:05.875Z,100826.28
2023-06-11T04:51:08.068Z,100820.44
2023-06-11T04:56:11.126Z,100822.31
2023-06-11T05:01:13.818Z,100821.16
2023-06-11T05:06:15.902Z,100828.41
2023-06-11T05:11:18.182Z,100835.06
2023-06-11T05:16:22.731Z,100842.28
2023-06-11T05:21:24.842Z,100840.31
2023-06-11T05:26:34.010Z,100844.84
2023-06-11T05:31:37.392Z,100842.56
2023-06-11T05:36:39.450Z,100850.91
2023-06-11T05:41:41.413Z,100848.81
2023-06-11T05:46:43.628Z,100850.66
2023-06-11T05:51:45.654Z,100856.19
2023-06-11T05:56:47.775Z,100858.22
2023-06-11T06:01:49.908Z,100858.78
2023-06-11T06:06:52.083Z,100853.53
2023-06-11T06:11:54.374Z,100862.47
2023-06-11T06:16:56.618Z,100867.03
2023-06-11T06:21:58.648Z,100863.47
2023-06-11T06:27:00.741Z,100867.44
2023-06-11T06:32:02.884Z,100871.41
2023-06-11T06:37:05.044Z,100875.97
2023-06-11T06:42:08.157Z,100871.84
2023-06-11T06:47:10.490Z,100869.72
2023-06-11T06:52:13.404Z,100871.19
2023-06-11T06:57:15.597Z,100870.56
2023-06-11T07:02:17.732Z,100870.66
2023-06-11T07:07:19.677Z,100871.63
2023-06-11T07:12:22.082Z,100879.47
2023-06-11T07:17:25.435Z,100884.56
2023-06-11T07:22:27.567Z,100876.03
2023-06-11T07:27:29.567Z,100873.75
2023-06-11T07:32:31.679Z,100873.63
2023-06-11T07:37:42.949Z,100874.47
2023-06-11T07:42:47.010Z,100876.47
2023-06-11T07:47:49.007Z,100869.09
2023-06-11T07:52:51.052Z,100875.34
2023-06-11T07:57:53.756Z,100878.75
2023-06-11T08:02:56.224Z,100872.50
2023-06-11T08:07:58.302Z,100870.53
2023-06-11T08:13:00.313Z,100875.91
2023-06-11T08:18:02.427Z,100879.59
2023-06-11T08:23:04.456Z,100877.31
2023-06-11T08:28:07.227Z,100873.06
2023-06-11T08:33:10.375Z,100866.81
2023-06-11T08:38:12.806Z,100868.66
2023-06-11T08:43:14.750Z,100871.09
2023-06-11T08:48:21.123Z,100865.16
2023-06-11T08:53:23.068Z,100871.41
2023-06-11T08:58:26.247Z,100872.25
2023-06-11T09:03:28.262Z,100867.28
2023-06-11T09:08:30.801Z,100862.00
2023-06-11T09:13:32.811Z,100872.22
2023-06-11T09:18:34.854Z,100861.03
2023-06-11T09:23:39.858Z,100858.53
2023-06-11T09:28:41.838Z,100851.09
2023-06-11T09:33:43.954Z,100858.78
2023-06-11T09:38:51.999Z,100861.13
2023-06-11T09:43:54.376Z,100863.25
2023-06-11T09:48:56.848Z,100870.66
2023-06-11T09:53:59.229Z,100867.09
2023-06-11T09:59:03.154Z,100861.88
2023-06-11T10:04:05.266Z,100864.44
2023-06-11T10:09:12.325Z,100860.88
2023-06-11T10:14:19.012Z,100863.84
2023-06-11T10:19:23.556Z,100865.28
2023-06-11T10:24:29.607Z,100858.88
2023-06-11T10:29:41.254Z,100849.81
2023-06-11T10:34:43.900Z,100847.09
2023-06-11T10:39:52.244Z,100852.50
2023-06-11T10:45:01.100Z,100844.28
2023-06-11T10:50:12.319Z,100843.00
2023-06-11T10:55:15.074Z,100839.00
2023-06-11T11:00:17.569Z,100843.56
2023-06-11T11:05:20.626Z,100832.22
2023-06-11T11:10:27.304Z,100838.16
2023-06-11T11:15:30.614Z,100834.63
2023-06-11T11:20:34.040Z,100845.72
2023-06-11T11:25:36.166Z,100838.47
2023-06-11T11:30:39.266Z,100832.75
2023-06-11T11:35:52.473Z,100837.59
2023-06-11T11:40:56.718Z,100834.75
2023-06-11T11:45:58.799Z,100835.75
2023-06-11T11:51:08.194Z,100831.50
2023-06-11T11:56:11.569Z,100828.53
2023-06-11T12:01:24.303Z,100822.53
2023-06-11T12:06:27.050Z,100825.41
2023-06-11T12:11:29.093Z,100820.09
2023-06-11T12:16:31.605Z,100811.75
2023-06-11T12:21:33.714Z,100811.31
2023-06-11T12:26:35.913Z,100807.34
2023-06-11T12:31:39.409Z,100804.63
2023-06-11T12:36:41.974Z,100797.25
2023-06-11T12:41:43.965Z,100802.94
2023-06-11T12:46:45.985Z,100796.28
2023-06-11T12:51:49.928Z,100792.41
2023-06-11T12:56:52.062Z,100782.19
2023-06-11T13:01:54.490Z,100787.03
2023-06-11T13:06:56.545Z,100788.72
2023-06-11T13:11:58.709Z,100783.75
2023-06-11T13:17:00.726Z,100779.06
2023-06-11T13:22:02.761Z,100784.31
2023-06-11T13:27:05.127Z,100775.38
2023-06-11T13:32:07.758Z,100771.38
2023-06-11T13:37:10.191Z,100779.34
2023-06-11T13:42:12.265Z,100778.78
2023-06-11T13:47:14.548Z,100767.97
2023-06-11T13:52:16.584Z,100776.66
2023-06-11T13:57:19.274Z,100769.09
2023-06-11T14:02:21.383Z,100775.22
2023-06-11T14:07:23.553Z,100771.25
2023-06-11T14:12:25.729Z,100766.00
2023-06-11T14:17:29.793Z,100766.97
2023-06-11T14:22:33.190Z,100766.84
2023-06-11T14:27:37.031Z,100755.78
2023-06-11T14:32:39.266Z,100753.63
2023-06-11T14:37:41.323Z,100757.59
2023-06-11T14:42:43.536Z,100758.63
2023-06-11T14:47:45.578Z,100750.63
2023-06-11T14:52:48.703Z,100753.63
2023-06-11T14:57:50.882Z,100747.38
2023-06-11T15:02:53.007Z,100741.56
2023-06-11T15:07:55.059Z,100741.81
2023-06-11T15:12:57.899Z,100743.28
2023-06-11T15:17:59.995Z,100748.25
2023-06-11T15:23:02.064Z,100743.97
2023-06-11T15:28:04.203Z,100731.75
2023-06-11T15:33:06.286Z,100738.16
2023-06-11T15:38:09.090Z,100739.28
2023-06-11T15:43:12.363Z,100737.13
2023-06-11T15:48:14.336Z,100735.72
2023-06-11T15:53:16.261Z,100734.59
2023-06-11T15:58:18.171Z,100725.63
2023-06-11T16:03:21.379Z,100724.78
2023-06-11T16:08:23.381Z,100722.78
2023-06-11T16:13:25.385Z,100722.63
2023-06-11T16:18:27.478Z,100722.34
2023-06-11T16:23:29.561Z,100719.50
2023-06-11T16:28:31.793Z,100730.19
2023-06-11T16:33:47.714Z,100729.31
2023-06-11T16:38:57.122Z,100723.91
2023-06-11T16:44:01.549Z,100737.00
2023-06-11T16:49:03.720Z,100724.78
2023-06-11T16:54:05.716Z,100731.16
2023-06-11T16:59:07.657Z,100732.72
2023-06-11T17:04:09.834Z,100730.75
2023-06-11T17:09:11.881Z,100733.03
2023-06-11T17:14:13.852Z,100728.75
2023-06-11T17:19:15.998Z,100723.38
2023-06-11T17:24:18.349Z,100718.81
2023-06-11T17:29:20.403Z,100726.78
2023-06-11T17:34:22.397Z,100723.06
2023-06-11T17:39:24.393Z,100720.94
2023-06-11T17:44:26.226Z,100727.03
2023-06-11T17:49:28.344Z,100729.75
2023-06-11T17:54:30.193Z,100730.31
2023-06-11T17:59:32.151Z,100721.81
2023-06-11T18:04:34.099Z,100729.47
2023-06-11T18:09:35.987Z,100732.44
2023-06-11T18:14:38.037Z,100728.75
2023-06-11T18:19:39.952Z,100735.00
2023-06-11T18:24:42.128Z,100738.00
2023-06-11T18:29:44.510Z,100741.56
2023-06-11T18:34:47.604Z,100755.91
2023-06-11T18:39:50.129Z,100753.34
2023-06-11T18:44:52.055Z,100759.47
2023-06-11T18:49:53.992Z,100757.75
2023-06-11T18:54:56.031Z,100756.94
2023-06-11T18:59:59.244Z,100766.84
2023-06-11T19:05:01.371Z,100763.44
2023-06-11T19:10:03.853Z,100778.53
2023-06-11T19:15:09.368Z,100776.66
2023-06-11T19:20:12.294Z,100784.50
2023-06-11T19:25:14.625Z,100777.25
2023-06-11T19:30:16.515Z,100774.81
2023-06-11T19:35:18.546Z,100793.84
2023-06-11T19:40:22.007Z,100798.69
2023-06-11T19:45:24.272Z,100781.38
2023-06-11T19:50:27.618Z,100790.31
2023-06-11T19:55:31.027Z,100794.44
2023-06-11T20:00:33.106Z,100801.97
2023-06-11T20:05:35.842Z,100801.69
2023-06-11T20:10:40.561Z,100808.25
2023-06-11T20:15:42.370Z,100810.50
2023-06-11T20:20:47.165Z,100812.22
2023-06-11T20:25:49.260Z,100803.25
2023-06-11T20:30:54.339Z,100807.53
2023-06-11T20:35:57.046Z,100809.22
2023-06-11T20:40:59.025Z,100812.06
2023-06-11T20:46:06.303Z,100805.81
2023-06-11T20:51:13.851Z,100809.34
2023-06-11T20:56:16.017Z,100812.06
2023-06-11T21:01:18.156Z,100815.91
2023-06-11T21:06:20.222Z,100815.59
2023-06-11T21:11:22.749Z,100816.59
2023-06-11T21:16:24.810Z,100814.56
2023-06-11T21:21:26.733Z,100815.44
2023-06-11T21:26:28.855Z,100819.00
2023-06-11T21:31:30.877Z,100813.72
2023-06-11T21:36:32.797Z,100817.28
2023-06-11T21:41:34.745Z,100818.28
2023-06-11T21:46:36.964Z,100826.53
2023-06-11T21:51:39.352Z,100809.78
2023-06-11T21:56:41.526Z,100809.06
2023-06-11T22:01:43.873Z,100813.03
2023-06-11T22:06:45.996Z,100825.00
2023-06-11T22:11:49.092Z,100830.53
2023-06-11T22:16:53.046Z,100838.66
2023-06-11T22:21:55.243Z,100838.06
2023-06-11T22:27:01.578Z,100829.53
2023-06-11T22:32:03.791Z,100839.22
2023-06-11T22:37:06.028Z,100835.94
2023-06-11T22:42:08.493Z,100838.22
2023-06-11T22:47:11.473Z,100844.31
2023-06-11T22:52:13.769Z,100854.09
2023-06-11T22:57:16.163Z,100855.69
2023-06-11T23:02:18.143Z,100854.66
2023-06-11T23:07:22.511Z,100859.06
2023-06-11T23:12:24.776Z,100863.19
2023-06-11T23:17:26.801Z,100866.88
2023-06-11T23:22:28.927Z,100865.03
2023-06-11T23:27:34.898Z,100866.31
2023-06-11T23:32:37.254Z,100867.72
2023-06-11T23:37:42.154Z,100865.88
2023-06-11T23:42:44.299Z,100859.50
2023-06-11T23:47:46.284Z,100862.19
2023-06-11T23:52:48.258Z,100861.22
2023-06-11T23:58:20.585Z,100856.53
